Thai Harvest — V7XQ5 — position and weather

sailwx.info

Track history (hours):
 
Tides and Currents Weather Stations Pressure Air Temp Water Temp Dewpoint Dewpoint Depression Visibility Wind Speed Wind Dir Waves Ship Positions

Thai Harvest

Last reported at 2014-Oct-31 10:16 UTC. Time now 2014-Oct-31 17:17 UTC.
Position S 29°52' E 031°01'.

Length 174 m; draft 8.9 m.

Type: Cargo ship. MMSI: 538004544.

Date/timePositionNaut miles runAvg speedWind from/ knotsBaromVisibWave heightAir tempDewpointWater temp
2014-Oct-31 10:16S 29°52' E 031°01'0 0.0
2014-Oct-31 09:28S 29°52' E 031°01'0 0.0
2014-Oct-31 08:10S 29°52' E 031°01'0 0.0
2014-Oct-31 06:28S 29°52' E 031°01'0 0.0
2014-Oct-31 05:28S 29°52' E 031°01'0 0.0
2014-Oct-31 04:16S 29°52' E 031°01'0 0.0
2014-Oct-31 03:28S 29°52' E 031°01'0 0.0
2014-Oct-31 02:28S 29°52' E 031°01'0 0.0
2014-Oct-30 23:22S 29°52' E 031°01'0 0.0
2014-Oct-30 21:28S 29°52' E 031°01'0 0.0
2014-Oct-30 20:28S 29°52' E 031°01'0 0.0
2014-Oct-30 19:28S 29°52' E 031°01'0 0.0
2014-Oct-30 17:16S 29°52' E 031°01'0 0.0
2014-Oct-30 16:22S 29°52' E 031°01'0 0.0
2014-Oct-30 15:28S 29°52' E 031°01'0 0.0
2014-Oct-30 14:10S 29°52' E 031°01'0 0.0
2014-Oct-30 13:28S 29°52' E 031°01'0 0.0
2014-Oct-30 12:10S 29°52' E 031°01'0 0.0
2014-Oct-30 11:22S 29°52' E 031°01'0 0.0
2014-Oct-30 10:28S 29°52' E 031°01'0 0.0
2014-Oct-30 09:28S 29°52' E 031°01'0 0.0
2014-Oct-30 08:28S 29°52' E 031°01'0 0.0
2014-Oct-30 07:28S 29°52' E 031°01'0 0.3
2014-Oct-30 06:33S 29°52' E 031°01'5 4.8
2014-Oct-30 05:34S 29°49' E 031°05'1 1.0
2014-Oct-30 04:30S 29°49' E 031°06'5 4.9
2014-Oct-30 03:33S 29°45' E 031°09'1 0.8
2014-Oct-30 02:30S 29°44' E 031°08'0 0.0
2014-Oct-30 01:33S 29°44' E 031°08'0 0.0
2014-Oct-30 00:33S 29°44' E 031°08'0 0.0
2014-Oct-29 23:33S 29°44' E 031°08'0 0.0
2014-Oct-29 22:33S 29°44' E 031°08'0 0.0
2014-Oct-29 21:33S 29°44' E 031°08'0 0.0
2014-Oct-29 20:33S 29°44' E 031°08'0 0.0
2014-Oct-29 19:33S 29°44' E 031°08'0 0.3
2014-Oct-29 18:33S 29°44' E 031°09'6 6.0
2014-Oct-29 17:33S 29°44' E 031°16'1111.1
2014-Oct-29 16:33S 29°38' E 031°26'1211.9
2014-Oct-29 15:33S 29°32' E 031°38'1212.2
2014-Oct-29 14:32S 29°25' E 031°50'1913.6
2014-Oct-29 13:07S 29°13' E 032°07'814.2
2014-Oct-29 12:33S 29°07' E 032°13'1513.9
2014-Oct-29 11:30S 28°55' E 032°23'  
Track history (hours):
 
Tides and Currents Weather Stations Pressure Air Temp Water Temp Dewpoint Dewpoint Depression Visibility Wind Speed Wind Dir Waves Ship Positions

Thai Harvest

Last reported at 2014-Oct-31 10:16 UTC. Time now 2014-Oct-31 17:17 UTC.
Position S 29°52' E 031°01'.

Length 174 m; draft 8.9 m.

Type: Cargo ship. MMSI: 538004544.

Date/timePositionNaut miles runAvg speedWind from/ knotsBaromVisibWave heightAir tempDewpointWater temp
2014-Oct-31 10:16S 29°52' E 031°01'0 0.0
2014-Oct-31 09:28S 29°52' E 031°01'0 0.0
2014-Oct-31 08:10S 29°52' E 031°01'0 0.0
2014-Oct-31 06:28S 29°52' E 031°01'0 0.0
2014-Oct-31 05:28S 29°52' E 031°01'0 0.0
2014-Oct-31 04:16S 29°52' E 031°01'0 0.0
2014-Oct-31 03:28S 29°52' E 031°01'0 0.0
2014-Oct-31 02:28S 29°52' E 031°01'0 0.0
2014-Oct-30 23:22S 29°52' E 031°01'0 0.0
2014-Oct-30 21:28S 29°52' E 031°01'0 0.0
2014-Oct-30 20:28S 29°52' E 031°01'0 0.0
2014-Oct-30 19:28S 29°52' E 031°01'0 0.0
2014-Oct-30 17:16S 29°52' E 031°01'0 0.0
2014-Oct-30 16:22S 29°52' E 031°01'0 0.0
2014-Oct-30 15:28S 29°52' E 031°01'0 0.0
2014-Oct-30 14:10S 29°52' E 031°01'0 0.0
2014-Oct-30 13:28S 29°52' E 031°01'0 0.0
2014-Oct-30 12:10S 29°52' E 031°01'0 0.0
2014-Oct-30 11:22S 29°52' E 031°01'0 0.0
2014-Oct-30 10:28S 29°52' E 031°01'0 0.0
2014-Oct-30 09:28S 29°52' E 031°01'0 0.0
2014-Oct-30 08:28S 29°52' E 031°01'0 0.0
2014-Oct-30 07:28S 29°52' E 031°01'0 0.3
2014-Oct-30 06:33S 29°52' E 031°01'5 4.8
2014-Oct-30 05:34S 29°49' E 031°05'1 1.0
2014-Oct-30 04:30S 29°49' E 031°06'5 4.9
2014-Oct-30 03:33S 29°45' E 031°09'1 0.8
2014-Oct-30 02:30S 29°44' E 031°08'0 0.0
2014-Oct-30 01:33S 29°44' E 031°08'0 0.0
2014-Oct-30 00:33S 29°44' E 031°08'0 0.0
2014-Oct-29 23:33S 29°44' E 031°08'0 0.0
2014-Oct-29 22:33S 29°44' E 031°08'0 0.0
2014-Oct-29 21:33S 29°44' E 031°08'0 0.0
2014-Oct-29 20:33S 29°44' E 031°08'0 0.0
2014-Oct-29 19:33S 29°44' E 031°08'0 0.3
2014-Oct-29 18:33S 29°44' E 031°09'6 6.0
2014-Oct-29 17:33S 29°44' E 031°16'1111.1
2014-Oct-29 16:33S 29°38' E 031°26'1211.9
2014-Oct-29 15:33S 29°32' E 031°38'1212.2
2014-Oct-29 14:32S 29°25' E 031°50'1913.6
2014-Oct-29 13:07S 29°13' E 032°07'814.2
2014-Oct-29 12:33S 29°07' E 032°13'1513.9
2014-Oct-29 11:30S 28°55' E 032°23'  

Dump ship's entire track history